KLNN/LNN METAR and TAF weather

Enter ICAO airport designator
Station Type Date Time Source
KLNN METAR 2020/07/11 04:35 UTC NOAA

KLNN 110435Z AUTO 20004KT 10SM BKN019 OVC025 22/20 A2969 RMK AO1 T02220196


Station Type Date Time Source
KLNN Decoded METAR 2020/07/11 04:35 UTC NOAA

Willoughby, OH, United States (KLNN) 41-41N 081-23W
Jul 11, 2020 - 12:35 AM EDT / 2020.07.11 0435 UTC
Wind: from the SSW (200 degrees) at 5 MPH (4 KT):0
Visibility: 10 mile(s):0
Sky conditions: overcast
Temperature: 72.0 F (22.2 C)
Dew Point: 67.3 F (19.6 C)
Relative Humidity: 85%
Pressure (altimeter): 29.69 in. Hg (1005 hPa)
ob: KLNN 110435Z AUTO 20004KT 10SM BKN019 OVC025 22/20 A2969 RMK AO1 T02220196
cycle: 4

Station Type Date Time Source
KLNN TAF UTC NOAA

Error!

Example: see airport list